This is the latest recevied weather packets stored in our database for station/object WC4PEM-12. If no packets are shown the sender has not sent any weather packets the latest 10 day(s).
| Time | Temp. | Humidity | Pressure | Rain* | Wind** | Luminosity | Snow |
|---|---|---|---|---|---|---|---|
| 1777501393 | 31.67° C | 42% | 1011 hPa | 0 mm | - | - | - |
| 1777501093 | 32.22° C | 42% | 1011.1 hPa | 0 mm | - | - | - |
| 1777500793 | 32.22° C | 41% | 1011.1 hPa | 0 mm | - | - | - |
| 1777500493 | 32.78° C | 41% | 1010.9 hPa | 0 mm | - | - | - |
| 1777500193 | 32.78° C | 40% | 1010.9 hPa | 0 mm | - | - | - |
| 1777499893 | 33.33° C | 40% | 1010.9 hPa | 0 mm | - | - | - |
| 1777499593 | 33.33° C | 44% | 1011.1 hPa | 0 mm | - | - | - |
| 1777499408 | 33.33° C | 44% | 1011.2 hPa | 0 mm | - | - | - |
| 1777499293 | 33.33° C | 44% | 1011.2 hPa | 0 mm | - | - | - |
| 1777498993 | 33.33° C | 45% | 1011.3 hPa | 0 mm | - | - | - |
| 1777498693 | 33.33° C | 45% | 1011.5 hPa | 0 mm | - | - | - |
| 1777498530 | 33.33° C | 45% | 1011.5 hPa | 0 mm | - | - | - |
| 1777498489 | 33.33° C | 45% | 1011.5 hPa | 0 mm | - | - | - |
| 1777498393 | 33.33° C | 45% | 1011.5 hPa | 0 mm | - | - | - |
| 1777498093 | 33.33° C | 44% | 1011.7 hPa | 0 mm | - | - | - |
| 1777497793 | 33.33° C | 43% | 1011.7 hPa | 0 mm | - | - | - |
| 1777497493 | 33.33° C | 44% | 1011.7 hPa | 0 mm | - | - | - |
| 1777497325 | 33.33° C | 43% | 1011.8 hPa | 0 mm | - | - | - |
| 1777497193 | 33.33° C | 43% | 1011.8 hPa | 0 mm | - | - | - |
| 1777496893 | 32.78° C | 41% | 1011.5 hPa | 0 mm | - | - | - |
| 1777496593 | 33.33° C | 41% | 1011.7 hPa | 0 mm | - | - | - |
| 1777496293 | 33.33° C | 41% | 1011.7 hPa | 0 mm | - | - | - |
| 1777495993 | 33.33° C | 41% | 1011.5 hPa | 0 mm | - | - | - |
| 1777495829 | 33.33° C | 43% | 1011.7 hPa | 0 mm | - | - | - |
| 1777495736 | 33.33° C | 45% | 1011.9 hPa | 0 mm | - | - | - |
* Rain latest hour (hover to see other rain measurements)
** Current wind speed in m/s (hover to see current wind gust speed)